Time;durP1;ratioP1;P1;durP2;ratioP2;P2;SDS_P1;SDS_P2;PMS_P1;PMS_P2;Temp;Humidity;BMP_temperature;BMP_pressure;BME280_temperature;BME280_humidity;BME280_pressure;Samples;Min_cycle;Max_cycle;Signal;HPM_P1;HPM_P2
2022/11/03 19:44:21;;;;;;;5.32;2.13;;;;;;;14.51;57.89;98245.47;4991355;28;20050;-63
2022/11/03 19:46:50;;;;;;;4.03;2.10;;;;;;;14.51;58.25;98244.63;5011186;28;20050;-62
2022/11/03 19:49:16;;;;;;;4.57;2.33;;;;;;;14.53;58.05;98245.28;4993897;28;20042;-65
2022/11/03 19:51:42;;;;;;;5.00;2.63;;;;;;;14.54;58.02;98239.03;5011589;28;20054;-57
2022/11/03 19:54:16;;;;;;;4.97;2.40;;;;;;;14.53;58.87;98237.34;5011351;28;20050;-53
2022/11/03 19:56:42;;;;;;;7.10;2.55;;;;;;;14.56;58.27;98242.34;5011460;28;20094;-52
2022/11/03 19:59:10;;;;;;;4.13;2.15;;;;;;;14.58;58.39;98237.75;5011113;28;20457;-57
2022/11/03 20:01:37;;;;;;;6.60;2.60;;;;;;;14.59;58.37;98240.22;5011326;28;20494;-53
2022/11/03 20:04:04;;;;;;;4.28;2.47;;;;;;;14.59;58.55;98232.28;5011734;28;20058;-52
2022/11/03 20:06:33;;;;;;;3.65;2.30;;;;;;;14.62;58.48;98235.63;5011190;28;20494;-54
2022/11/03 20:09:01;;;;;;;6.38;2.42;;;;;;;14.63;58.53;98235.47;4993792;28;20104;-55
2022/11/03 20:11:27;;;;;;;6.15;2.50;;;;;;;14.64;58.48;98245.09;5010893;28;20506;-53
2022/11/03 20:13:53;;;;;;;6.10;2.88;;;;;;;14.64;58.45;98237.13;5011018;28;20482;-53
2022/11/03 20:16:19;;;;;;;5.32;2.50;;;;;;;14.65;58.53;98241.44;5010924;28;20069;-53
2022/11/03 20:18:47;;;;;;;5.22;2.50;;;;;;;14.65;58.54;98249.38;5011603;28;20421;-54
2022/11/03 20:21:15;;;;;;;7.45;2.70;;;;;;;14.66;58.62;98244.94;5011134;28;20103;-52
2022/11/03 20:23:43;;;;;;;3.78;2.30;;;;;;;14.66;58.91;98232.50;5011492;28;20051;-50
2022/11/03 20:26:15;;;;;;;4.00;2.42;;;;;;;14.66;59.20;98237.81;5011462;28;20053;-50
2022/11/03 20:28:41;;;;;;;7.07;2.83;;;;;;;14.66;58.72;98237.81;5015325;28;20085;-57
2022/11/03 20:31:10;;;;;;;6.47;2.50;;;;;;;14.67;58.93;98228.06;5015055;28;20077;-53
2022/11/03 20:33:37;;;;;;;6.70;2.65;;;;;;;14.67;58.73;98236.84;5015263;28;20081;-54
2022/11/03 20:36:05;;;;;;;6.03;2.40;;;;;;;14.66;58.76;98227.22;5014548;28;20460;-56
2022/11/03 20:38:32;;;;;;;4.15;2.47;;;;;;;14.65;59.10;98228.19;5015448;28;20088;-53
2022/11/03 20:41:02;;;;;;;4.10;2.33;;;;;;;14.64;59.43;98231.00;5014582;28;20179;-54
2022/11/03 20:43:33;;;;;;;4.53;2.50;;;;;;;14.64;59.38;98231.84;5015120;28;20100;-53
2022/11/03 20:46:00;;;;;;;4.43;2.50;;;;;;;14.64;59.09;98228.34;5012278;28;20137;-55
2022/11/03 20:48:27;;;;;;;4.80;2.58;;;;;;;14.65;59.10;98230.84;5014796;28;20137;-58
2022/11/03 20:50:53;;;;;;;7.05;2.58;;;;;;;14.64;59.38;98228.34;5014779;28;20104;-58
2022/11/03 20:53:22;;;;;;;5.47;2.63;;;;;;;14.63;59.47;98235.47;5014470;28;20560;-54
2022/11/03 20:55:49;;;;;;;3.47;2.35;;;;;;;14.64;59.40;98228.34;4996936;28;20510;-58
2022/11/03 20:58:16;;;;;;;4.78;2.35;;;;;;;14.63;59.30;98227.53;4996785;28;20490;-55
2022/11/03 21:00:44;;;;;;;4.63;2.60;;;;;;;14.64;59.52;98231.00;5014775;28;20137;-56
2022/11/03 21:03:14;;;;;;;4.35;2.42;;;;;;;14.63;59.96;98229.34;5014172;28;20054;-56
2022/11/03 21:06:00;;;;;;;4.47;2.80;;;;;;;14.64;59.28;98217.75;5014552;28;20071;-55
2022/11/03 21:08:27;;;;;;;4.53;2.50;;;;;;;14.62;59.46;98215.28;5014072;28;20100;-54
2022/11/03 21:10:53;;;;;;;5.15;2.40;;;;;;;14.61;59.42;98213.59;5014674;28;20146;-53
2022/11/03 21:13:19;;;;;;;3.22;2.55;;;;;;;14.60;59.50;98211.94;5013979;28;20096;-56
2022/11/03 21:21:34;;;;;;;4.55;2.22;;;;;;;14.59;58.96;98195.22;5014358;28;19983;-56
2022/11/03 21:24:00;;;;;;;3.33;2.42;;;;;;;14.56;59.32;98198.19;5013967;28;20125;-52
2022/11/03 21:26:27;;;;;;;4.28;3.03;;;;;;;14.54;59.55;98202.78;5013860;28;20128;-54
2022/11/03 21:28:53;;;;;;;3.78;2.40;;;;;;;14.53;59.67;98203.78;5013665;28;20149;-54
2022/11/03 21:31:19;;;;;;;4.72;2.47;;;;;;;14.51;59.78;98199.63;5013916;28;20053;-57
2022/11/03 21:33:46;;;;;;;2.75;2.28;;;;;;;14.50;59.99;98196.13;5013711;28;20085;-58
2022/11/03 21:36:12;;;;;;;4.10;2.55;;;;;;;14.50;59.99;98196.13;5013727;28;20570;-56
2022/11/03 21:38:38;;;;;;;6.97;2.35;;;;;;;14.50;60.04;98197.97;5013301;28;20430;-57
2022/11/03 21:46:37;;;;;;;5.78;3.03;;;;;;;14.51;60.13;98181.94;4999034;28;20183;-52
2022/11/03 21:51:48;;;;;;;4.15;2.47;;;;;;;14.52;60.06;98175.63;5013624;28;20046;-55
2022/11/03 21:54:14;;;;;;;3.88;2.58;;;;;;;14.52;60.22;98175.63;5013447;28;20054;-51
2022/11/03 21:56:41;;;;;;;3.15;2.55;;;;;;;14.52;60.27;98180.09;5013806;28;20049;-51
2022/11/03 21:59:07;;;;;;;4.43;2.92;;;;;;;14.51;60.35;98178.44;5013379;28;20569;-53
2022/11/03 22:01:33;;;;;;;7.30;2.80;;;;;;;14.51;60.43;98173.13;5013586;28;20502;-55
2022/11/03 22:04:00;;;;;;;4.53;2.83;;;;;;;14.50;60.32;98176.78;5013203;28;20049;-53
2022/11/03 22:06:27;;;;;;;5.90;3.00;;;;;;;14.50;60.47;98172.28;5013301;28;20093;-49
2022/11/03 22:08:53;;;;;;;5.35;2.92;;;;;;;14.49;60.48;98186.53;5013211;28;20092;-54
2022/11/03 22:11:22;;;;;;;5.80;3.10;;;;;;;14.49;60.66;98180.38;5013253;28;20481;-53
2022/11/03 22:13:55;;;;;;;4.85;3.03;;;;;;;14.48;61.35;98186.69;4995714;28;20069;-52
2022/11/03 22:16:41;;;;;;;5.65;3.15;;;;;;;14.51;60.78;98183.72;5013022;28;20046;-50
2022/11/03 22:27:46;;;;;;;4.45;2.97;;;;;;;14.52;60.65;98174.78;4990570;28;20100;-52
2022/11/03 22:32:57;;;;;;;5.50;3.03;;;;;;;14.50;60.88;98168.84;5012977;28;20104;-54
2022/11/03 22:38:12;;;;;;;6.15;3.10;;;;;;;14.49;61.12;98175.09;5012824;28;20494;-54
2022/11/03 22:46:13;;;;;;;4.80;3.05;;;;;;;14.44;61.17;98179.03;4992813;28;20092;-54
2022/11/03 22:48:39;;;;;;;5.65;3.17;;;;;;;14.41;61.04;98166.13;4992796;28;20065;-54
2022/11/03 22:51:07;;;;;;;5.85;2.95;;;;;;;14.40;61.14;98159.16;4992822;28;20141;-60
2022/11/03 22:56:23;;;;;;;3.88;2.80;;;;;;;14.38;61.83;98162.91;4985762;28;20085;-58
2022/11/03 22:58:50;;;;;;;5.72;3.20;;;;;;;14.38;61.69;98173.50;4956839;28;20565;-60
2022/11/03 23:01:22;;;;;;;6.28;3.50;;;;;;;14.33;62.08;98172.16;4971906;28;20105;-55
2022/11/03 23:03:49;;;;;;;5.60;3.10;;;;;;;14.35;61.53;98161.41;4990210;28;20050;-54
2022/11/03 23:06:17;;;;;;;4.60;3.17;;;;;;;14.33;61.57;98176.63;4992502;28;20054;-56
2022/11/03 23:08:46;;;;;;;4.82;3.30;;;;;;;14.34;61.89;98183.56;4992590;28;20521;-52
2022/11/03 23:11:15;;;;;;;3.90;3.10;;;;;;;14.33;61.96;98185.38;4991819;28;20133;-54
2022/11/03 23:13:42;;;;;;;5.15;2.78;;;;;;;14.34;61.94;98194.16;4992672;28;20117;-53
2022/11/03 23:16:20;;;;;;;5.05;3.42;;;;;;;14.30;62.55;98172.47;4991932;28;20078;-55
2022/11/03 23:21:34;;;;;;;8.05;3.58;;;;;;;14.33;61.71;98161.56;4991882;28;20089;-55
2022/11/03 23:26:46;;;;;;;5.20;3.25;;;;;;;14.32;61.66;98167.03;4991910;28;20050;-52
2022/11/03 23:29:13;;;;;;;5.50;2.70;;;;;;;14.30;61.70;98163.69;4992487;28;20081;-51
2022/11/03 23:31:41;;;;;;;3.90;3.08;;;;;;;14.28;61.88;98174.41;4991902;28;20050;-54
2022/11/03 23:34:09;;;;;;;6.13;3.38;;;;;;;14.27;62.11;98178.06;4974539;28;20535;-56
2022/11/03 23:36:36;;;;;;;3.83;3.08;;;;;;;14.27;62.21;98179.84;4987043;28;20106;-50
2022/11/03 23:39:03;;;;;;;4.15;3.00;;;;;;;14.26;62.14;98179.03;4990895;28;20577;-52
2022/11/03 23:41:30;;;;;;;5.43;3.00;;;;;;;14.25;62.05;98174.75;4997154;28;20056;-48
2022/11/03 23:43:56;;;;;;;4.47;2.92;;;;;;;14.27;62.45;98175.41;5011649;28;20380;-50
2022/11/03 23:49:12;;;;;;;4.55;3.00;;;;;;;14.28;62.32;98155.06;5011540;28;20136;-57
2022/11/03 23:51:40;;;;;;;5.70;2.80;;;;;;;14.29;62.49;98154.94;5011629;28;20486;-49
2022/11/03 23:54:09;;;;;;;4.53;2.75;;;;;;;14.30;62.48;98153.09;5011219;28;20077;-53
2022/11/03 23:59:24;;;;;;;4.07;3.08;;;;;;;14.33;62.21;98150.97;5010853;28;20085;-48
